createdAt,value
2019-04-18T00:00:44.929Z,17.95
2019-04-18T00:01:55.148Z,17.96
2019-04-18T00:03:04.691Z,18
2019-04-18T00:04:13.570Z,17.97
2019-04-18T00:05:22.726Z,17.92
2019-04-18T00:06:31.890Z,17.93
2019-04-18T00:07:41.087Z,17.97
2019-04-18T00:08:50.279Z,17.99
2019-04-18T00:10:01.983Z,18
2019-04-18T00:11:11.141Z,17.93
2019-04-18T00:12:27.707Z,17.97
2019-04-18T00:13:37.120Z,18.02
2019-04-18T00:14:54.595Z,17.99
2019-04-18T00:16:03.944Z,17.9
2019-04-18T00:17:16.696Z,17.99
2019-04-18T00:18:26.107Z,17.86
2019-04-18T00:19:35.261Z,17.99
2019-04-18T00:20:49.404Z,17.9
2019-04-18T00:21:58.545Z,18.03
2019-04-18T00:23:07.432Z,17.93
2019-04-18T00:24:16.878Z,17.96
2019-04-18T00:25:26.562Z,17.95
2019-04-18T00:26:35.701Z,17.87
2019-04-18T00:27:53.265Z,17.99
2019-04-18T00:29:02.911Z,17.87
2019-04-18T00:30:11.798Z,17.97
2019-04-18T00:31:20.688Z,17.87
2019-04-18T00:32:29.678Z,17.92
2019-04-18T00:33:38.821Z,17.86
2019-04-18T00:34:48.227Z,17.93
2019-04-18T00:35:57.916Z,17.93
2019-04-18T00:37:07.718Z,17.9
2019-04-18T00:38:16.691Z,17.87
2019-04-18T00:39:25.847Z,17.84
2019-04-18T00:40:34.723Z,17.93
2019-04-18T00:41:52.022Z,17.97
2019-04-18T00:43:01.557Z,17.87
2019-04-18T00:44:11.055Z,17.87
2019-04-18T00:45:20.490Z,17.9
2019-04-18T00:46:29.638Z,17.92
2019-04-18T00:47:38.799Z,17.89
2019-04-18T00:48:47.939Z,17.9
2019-04-18T00:49:59.799Z,17.86
2019-04-18T00:51:09.352Z,17.87
2019-04-18T00:52:22.234Z,17.9
2019-04-18T00:53:31.379Z,17.87
2019-04-18T00:54:40.545Z,17.86
2019-04-18T00:55:49.452Z,17.89
2019-04-18T00:56:59.602Z,17.93
2019-04-18T00:58:20.814Z,17.84
2019-04-18T00:59:30.242Z,17.9
2019-04-18T01:00:42.459Z,17.87
2019-04-18T01:01:51.924Z,17.84
2019-04-18T01:03:01.981Z,17.9
2019-04-18T01:04:25.565Z,17.86
2019-04-18T01:05:42.383Z,17.92
2019-04-18T01:06:56.376Z,17.78
2019-04-18T01:08:06.231Z,17.84
2019-04-18T01:09:15.379Z,17.86
2019-04-18T01:10:24.250Z,17.97
2019-04-18T01:11:33.222Z,17.87
2019-04-18T01:12:42.381Z,17.82
2019-04-18T01:13:51.266Z,17.99
2019-04-18T01:15:01.507Z,17.84
2019-04-18T01:16:10.489Z,17.81
2019-04-18T01:17:19.458Z,17.89
2019-04-18T01:18:28.607Z,17.86
2019-04-18T01:19:37.496Z,17.95
2019-04-18T01:20:46.386Z,17.96
2019-04-18T01:21:55.529Z,17.86
2019-04-18T01:23:05.667Z,17.81
2019-04-18T01:24:15.279Z,17.86
2019-04-18T01:25:24.436Z,17.86
2019-04-18T01:26:36.896Z,17.84
2019-04-18T01:27:52.716Z,17.79
2019-04-18T01:29:03.308Z,17.96
2019-04-18T01:30:12.476Z,17.82
2019-04-18T01:31:21.619Z,17.77
2019-04-18T01:32:30.499Z,17.87
2019-04-18T01:33:41.606Z,17.84
2019-04-18T01:34:53.805Z,17.96
2019-04-18T01:36:03.371Z,17.84
2019-04-18T01:37:12.525Z,17.84
2019-04-18T01:38:21.670Z,17.81
2019-04-18T01:39:30.809Z,17.81
2019-04-18T01:40:40.267Z,17.86
2019-04-18T01:41:49.139Z,17.84
2019-04-18T01:43:09.411Z,17.86
2019-04-18T01:44:19.142Z,17.79
2019-04-18T01:45:28.280Z,17.87
2019-04-18T01:46:37.438Z,17.89
2019-04-18T01:47:46.581Z,17.84
2019-04-18T01:48:56.020Z,17.79
2019-04-18T01:50:04.923Z,17.81
2019-04-18T01:51:26.050Z,17.86
2019-04-18T01:52:34.970Z,17.84
2019-04-18T01:53:43.858Z,17.82
2019-04-18T01:54:53.278Z,17.82
2019-04-18T01:56:03.113Z,17.82
2019-04-18T01:57:12.360Z,17.93
2019-04-18T01:58:21.504Z,17.81
2019-04-18T01:59:30.388Z,17.79
2019-04-18T02:00:44.320Z,17.81
2019-04-18T02:02:00.114Z,17.84
2019-04-18T02:03:10.227Z,17.84
2019-04-18T02:04:19.127Z,17.82
2019-04-18T02:05:31.376Z,17.84
2019-04-18T02:06:43.705Z,17.87
2019-04-18T02:07:52.610Z,17.84
2019-04-18T02:09:01.512Z,17.9
2019-04-18T02:10:11.097Z,17.82
2019-04-18T02:11:20.239Z,17.9
2019-04-18T02:12:29.111Z,17.84
2019-04-18T02:13:38.268Z,17.87
2019-04-18T02:14:47.738Z,17.75
2019-04-18T02:15:56.627Z,17.92
2019-04-18T02:17:21.789Z,17.81
2019-04-18T02:18:31.214Z,17.82
2019-04-18T02:19:40.087Z,17.92
2019-04-18T02:20:49.506Z,17.82
2019-04-18T02:21:58.386Z,17.86
2019-04-18T02:23:07.793Z,17.71
2019-04-18T02:24:17.082Z,17.77
2019-04-18T02:25:25.956Z,17.79
2019-04-18T02:26:35.198Z,17.84
2019-04-18T02:27:44.068Z,17.82
2019-04-18T02:28:53.214Z,17.77
2019-04-18T02:30:02.810Z,17.78
2019-04-18T02:31:13.700Z,17.82
2019-04-18T02:32:22.625Z,17.81
2019-04-18T02:33:31.511Z,17.77
2019-04-18T02:34:40.417Z,17.86
2019-04-18T02:35:49.569Z,17.82
2019-04-18T02:36:58.998Z,17.81
2019-04-18T02:38:15.257Z,17.82
2019-04-18T02:39:32.490Z,17.75
2019-04-18T02:40:41.366Z,17.72
2019-04-18T02:41:50.243Z,17.7
2019-04-18T02:42:59.389Z,17.71
2019-04-18T02:44:08.582Z,17.71
2019-04-18T02:45:17.464Z,17.77
2019-04-18T02:46:26.879Z,17.74
2019-04-18T02:47:36.030Z,17.74
2019-04-18T02:48:45.181Z,17.71
2019-04-18T02:49:54.056Z,17.68
2019-04-18T02:51:18.318Z,17.71
2019-04-18T02:52:29.266Z,17.74
2019-04-18T02:53:38.153Z,17.74
2019-04-18T02:54:49.223Z,17.7
2019-04-18T02:55:58.373Z,17.71
2019-04-18T02:57:07.391Z,17.68
2019-04-18T02:58:16.540Z,17.7
2019-04-18T02:59:25.954Z,17.72
2019-04-18T03:00:34.898Z,17.71
2019-04-18T03:01:43.772Z,17.75
2019-04-18T03:02:52.644Z,17.75
2019-04-18T03:04:01.606Z,17.68
2019-04-18T03:05:10.753Z,17.74
2019-04-18T03:06:20.616Z,17.68
2019-04-18T03:07:29.769Z,17.74
2019-04-18T03:08:39.185Z,17.75
2019-04-18T03:09:48.350Z,17.71
2019-04-18T03:10:57.318Z,17.71
2019-04-18T03:12:07.501Z,17.71
2019-04-18T03:13:16.929Z,17.75
2019-04-18T03:14:26.074Z,17.74
2019-04-18T03:15:34.940Z,17.71
2019-04-18T03:16:44.347Z,17.64
2019-04-18T03:17:53.859Z,17.75
2019-04-18T03:19:15.933Z,17.75
2019-04-18T03:20:25.138Z,17.7
2019-04-18T03:21:34.283Z,17.72
2019-04-18T03:22:43.703Z,17.75
2019-04-18T03:23:52.588Z,17.75
2019-04-18T03:25:01.460Z,17.77
2019-04-18T03:26:10.351Z,17.74
2019-04-18T03:27:19.784Z,17.79
2019-04-18T03:28:29.036Z,17.71
2019-04-18T03:29:37.911Z,17.74
2019-04-18T03:30:46.836Z,17.74
2019-04-18T03:32:04.057Z,17.77
2019-04-18T03:33:26.196Z,17.71
2019-04-18T03:34:35.351Z,17.74
2019-04-18T03:35:58.845Z,17.78
2019-04-18T03:37:10.892Z,17.7
2019-04-18T03:38:20.036Z,17.71
2019-04-18T03:39:28.903Z,17.58
2019-04-18T03:40:38.045Z,17.71
2019-04-18T03:41:47.453Z,17.72
2019-04-18T03:42:56.608Z,17.63
2019-04-18T03:44:20.388Z,17.72
2019-04-18T03:45:29.279Z,17.72
2019-04-18T03:46:38.687Z,17.72
2019-04-18T03:47:50.932Z,17.72
2019-04-18T03:49:00.522Z,17.71
2019-04-18T03:50:21.676Z,17.7
2019-04-18T03:51:31.080Z,17.7
2019-04-18T03:52:39.947Z,17.63
2019-04-18T03:53:48.820Z,17.72
2019-04-18T03:54:57.706Z,17.78
2019-04-18T03:56:08.213Z,17.71
2019-04-18T03:57:17.915Z,17.71
2019-04-18T03:58:26.788Z,17.74
2019-04-18T03:59:36.206Z,17.66
2019-04-18T04:00:45.346Z,17.72
2019-04-18T04:01:54.805Z,17.66
2019-04-18T04:03:19.374Z,17.68
2019-04-18T04:04:28.799Z,17.63
2019-04-18T04:05:37.678Z,17.55
2019-04-18T04:06:48.985Z,17.66
2019-04-18T04:08:03.495Z,17.59
2019-04-18T04:09:12.365Z,17.59
2019-04-18T04:10:21.509Z,17.56
2019-04-18T04:11:30.656Z,17.58
2019-04-18T04:12:40.068Z,17.59
2019-04-18T04:13:49.212Z,17.56
2019-04-18T04:14:58.619Z,17.56
2019-04-18T04:16:09.049Z,17.64
2019-04-18T04:17:18.028Z,17.59
2019-04-18T04:18:26.963Z,17.66
2019-04-18T04:19:36.118Z,17.59
2019-04-18T04:20:45.086Z,17.63
2019-04-18T04:21:53.967Z,17.62
2019-04-18T04:23:03.596Z,17.62
2019-04-18T04:24:12.956Z,17.56
2019-04-18T04:25:22.098Z,17.56
2019-04-18T04:26:31.238Z,17.58
2019-04-18T04:27:40.398Z,17.62
2019-04-18T04:28:49.269Z,17.58
2019-04-18T04:29:58.467Z,17.62
2019-04-18T04:31:21.817Z,17.56
2019-04-18T04:32:34.886Z,17.58
2019-04-18T04:33:44.656Z,17.55
2019-04-18T04:34:53.791Z,17.63
2019-04-18T04:36:26.258Z,17.54
2019-04-18T04:37:47.056Z,17.62
2019-04-18T04:38:57.530Z,17.58
2019-04-18T04:40:06.806Z,17.62
2019-04-18T04:41:19.169Z,17.56
2019-04-18T04:42:28.314Z,17.63
2019-04-18T04:43:37.463Z,17.59
2019-04-18T04:44:46.626Z,17.56
2019-04-18T04:45:55.565Z,17.59
2019-04-18T04:47:17.931Z,17.56
2019-04-18T04:48:31.285Z,17.62
2019-04-18T04:49:40.439Z,17.63
2019-04-18T04:50:49.868Z,17.54
2019-04-18T04:51:59.557Z,17.58
2019-04-18T04:53:08.506Z,17.56
2019-04-18T04:54:21.073Z,17.58
2019-04-18T04:55:30.217Z,17.63
2019-04-18T04:56:42.978Z,17.52
2019-04-18T04:58:05.048Z,17.54
2019-04-18T04:59:18.149Z,17.59
2019-04-18T05:00:29.332Z,17.51
2019-04-18T05:01:38.263Z,17.52
2019-04-18T05:02:47.420Z,17.62
2019-04-18T05:03:56.391Z,17.54
2019-04-18T05:05:05.861Z,17.52
2019-04-18T05:06:15.352Z,17.52
2019-04-18T05:07:40.167Z,17.54
2019-04-18T05:08:49.045Z,17.55
2019-04-18T05:09:58.208Z,17.63
2019-04-18T05:11:07.107Z,17.55
2019-04-18T05:12:17.035Z,17.52
2019-04-18T05:13:28.928Z,17.56
2019-04-18T05:14:41.448Z,17.56
2019-04-18T05:15:53.710Z,17.52
2019-04-18T05:17:02.840Z,17.52
2019-04-18T05:18:12.443Z,17.49
2019-04-18T05:19:22.581Z,17.54
2019-04-18T05:20:32.268Z,17.55
2019-04-18T05:21:44.903Z,17.51
2019-04-18T05:22:59.219Z,17.55
2019-04-18T05:24:12.087Z,17.54
2019-04-18T05:25:21.328Z,17.56
2019-04-18T05:26:30.479Z,17.54
2019-04-18T05:27:39.650Z,17.52
2019-04-18T05:28:48.821Z,17.55
2019-04-18T05:29:57.989Z,17.51
2019-04-18T05:31:06.971Z,17.56
2019-04-18T05:32:21.739Z,17.52
2019-04-18T05:33:37.925Z,17.56
2019-04-18T05:34:52.874Z,17.55
2019-04-18T05:36:06.558Z,17.52
2019-04-18T05:37:20.384Z,17.51
2019-04-18T05:38:29.343Z,17.52
2019-04-18T05:39:38.487Z,17.51
2019-04-18T05:40:47.365Z,17.52
2019-04-18T05:41:59.119Z,17.52
2019-04-18T05:43:08.162Z,17.52
2019-04-18T05:44:17.620Z,17.51
2019-04-18T05:45:29.394Z,17.56
2019-04-18T05:46:38.541Z,17.51
2019-04-18T05:47:47.419Z,17.52
2019-04-18T05:48:56.614Z,17.54
2019-04-18T05:50:16.582Z,17.52
2019-04-18T05:51:26.146Z,17.55
2019-04-18T05:52:35.027Z,17.55
2019-04-18T05:53:43.948Z,17.55
2019-04-18T05:54:53.363Z,17.46
2019-04-18T05:56:02.233Z,17.55
2019-04-18T05:57:11.281Z,17.51
2019-04-18T05:58:20.884Z,17.51
2019-04-18T05:59:30.131Z,17.51
2019-04-18T06:00:39.337Z,17.49
2019-04-18T06:01:48.476Z,17.49
2019-04-18T06:02:57.826Z,17.46
2019-04-18T06:04:07.437Z,17.54
2019-04-18T06:05:16.577Z,17.51
2019-04-18T06:06:25.451Z,17.49
2019-04-18T06:07:34.875Z,17.52
2019-04-18T06:08:48.053Z,17.44
2019-04-18T06:09:57.196Z,17.51
2019-04-18T06:11:06.513Z,17.49
2019-04-18T06:12:17.024Z,17.55
2019-04-18T06:13:25.913Z,17.54
2019-04-18T06:14:37.754Z,17.48
2019-04-18T06:15:51.402Z,17.52
2019-04-18T06:17:08.013Z,17.41
2019-04-18T06:18:17.749Z,17.41
2019-04-18T06:19:27.972Z,17.46
2019-04-18T06:20:38.814Z,17.52
2019-04-18T06:21:47.966Z,17.4
2019-04-18T06:22:57.752Z,17.49
2019-04-18T06:24:09.761Z,17.49
2019-04-18T06:25:25.456Z,17.51
2019-04-18T06:26:36.156Z,17.49
2019-04-18T06:27:45.466Z,17.49
2019-04-18T06:28:54.397Z,17.55
2019-04-18T06:30:03.561Z,17.54
2019-04-18T06:31:17.005Z,17.48
2019-04-18T06:32:26.204Z,17.46
2019-04-18T06:33:40.759Z,17.46
2019-04-18T06:34:49.753Z,17.52
2019-04-18T06:35:58.897Z,17.52
2019-04-18T06:37:09.219Z,17.48
2019-04-18T06:38:40.435Z,17.49
2019-04-18T06:39:59.581Z,17.52
2019-04-18T06:41:10.994Z,17.51
2019-04-18T06:42:22.848Z,17.55
2019-04-18T06:43:31.990Z,17.52
2019-04-18T06:44:41.207Z,17.52
2019-04-18T06:45:50.133Z,17.51
2019-04-18T06:46:59.346Z,17.56
2019-04-18T06:48:09.191Z,17.55
2019-04-18T06:49:19.147Z,17.55
2019-04-18T06:50:29.778Z,17.56
2019-04-18T06:51:38.761Z,17.54
2019-04-18T06:52:47.646Z,17.55
2019-04-18T06:54:00.764Z,17.52
2019-04-18T06:55:10.975Z,17.52
2019-04-18T06:56:22.854Z,17.56
2019-04-18T06:57:32.108Z,17.51
2019-04-18T06:58:51.884Z,17.58
2019-04-18T07:00:01.166Z,17.58
2019-04-18T07:01:10.338Z,17.62
2019-04-18T07:02:19.662Z,17.58
2019-04-18T07:03:29.179Z,17.55
2019-04-18T07:04:38.333Z,17.58
2019-04-18T07:05:47.208Z,17.56
2019-04-18T07:06:56.100Z,17.52
2019-04-18T07:08:05.519Z,17.56
2019-04-18T07:09:14.807Z,17.62
2019-04-18T07:10:23.956Z,17.54
2019-04-18T07:11:37.990Z,17.59
2019-04-18T07:12:52.384Z,17.63
2019-04-18T07:14:01.674Z,17.59
2019-04-18T07:15:15.732Z,17.56
2019-04-18T07:16:24.881Z,17.59
2019-04-18T07:17:34.020Z,17.62
2019-04-18T07:18:44.314Z,17.55
2019-04-18T07:19:53.726Z,17.7
2019-04-18T07:21:03.199Z,17.7
2019-04-18T07:22:12.950Z,17.72
2019-04-18T07:23:22.388Z,17.75
2019-04-18T07:24:31.263Z,17.74
2019-04-18T07:25:40.411Z,17.72
2019-04-18T07:26:49.604Z,17.74
2019-04-18T07:28:05.532Z,17.71
2019-04-18T07:29:14.679Z,17.7
2019-04-18T07:30:24.050Z,17.7
2019-04-18T07:31:36.941Z,17.7
2019-04-18T07:32:46.180Z,17.75
2019-04-18T07:33:55.972Z,17.81
2019-04-18T07:35:04.858Z,17.82
2019-04-18T07:36:14.274Z,17.92
2019-04-18T07:37:24.852Z,17.93
2019-04-18T07:38:36.594Z,17.84
2019-04-18T07:39:45.479Z,17.84
2019-04-18T07:40:54.898Z,17.79
2019-04-18T07:42:04.043Z,17.84
2019-04-18T07:43:14.133Z,17.79
2019-04-18T07:44:23.342Z,17.84
2019-04-18T07:45:32.523Z,17.77
2019-04-18T07:46:41.661Z,17.79
2019-04-18T07:47:50.580Z,17.84
2019-04-18T07:49:00.277Z,17.84
2019-04-18T07:50:10.297Z,17.9
2019-04-18T07:51:19.465Z,17.86
2019-04-18T07:52:28.880Z,17.81
2019-04-18T07:53:38.043Z,17.84
2019-04-18T07:54:47.189Z,17.84
2019-04-18T07:55:56.339Z,17.84
2019-04-18T07:57:12.230Z,17.79
2019-04-18T07:58:37.274Z,17.87
2019-04-18T07:59:46.433Z,17.84
2019-04-18T08:00:58.277Z,17.89
2019-04-18T08:02:07.156Z,17.89
2019-04-18T08:03:18.618Z,17.84
2019-04-18T08:04:45.366Z,17.81
2019-04-18T08:05:54.559Z,17.84
2019-04-18T08:07:03.443Z,17.82
2019-04-18T08:08:13.134Z,17.89
2019-04-18T08:09:22.362Z,17.84
2019-04-18T08:10:31.468Z,17.75
2019-04-18T08:11:40.618Z,17.93
2019-04-18T08:12:49.759Z,17.84
2019-04-18T08:13:58.652Z,17.86
2019-04-18T08:15:08.070Z,17.95
2019-04-18T08:16:17.224Z,17.99
2019-04-18T08:17:27.213Z,17.86
2019-04-18T08:18:36.359Z,17.92
2019-04-18T08:19:48.660Z,17.87
2019-04-18T08:21:01.021Z,17.87
2019-04-18T08:22:12.508Z,17.81
2019-04-18T08:23:39.712Z,17.86
2019-04-18T08:24:49.371Z,17.96
2019-04-18T08:26:00.071Z,17.82
2019-04-18T08:27:08.954Z,17.92
2019-04-18T08:28:21.068Z,17.84
2019-04-18T08:29:32.768Z,17.93
2019-04-18T08:30:41.673Z,17.99
2019-04-18T08:31:50.879Z,17.87
2019-04-18T08:32:59.761Z,17.87
2019-04-18T08:34:08.700Z,17.93
2019-04-18T08:35:18.627Z,17.9
2019-04-18T08:36:27.504Z,17.97
2019-04-18T08:37:36.657Z,17.97
2019-04-18T08:38:46.763Z,17.89
2019-04-18T08:39:55.637Z,17.86
2019-04-18T08:41:05.049Z,18.03
2019-04-18T08:42:14.226Z,17.87
2019-04-18T08:43:26.344Z,17.96
2019-04-18T08:44:35.804Z,17.97
2019-04-18T08:45:44.785Z,17.92
2019-04-18T08:46:57.533Z,17.9
2019-04-18T08:48:09.867Z,17.95
2019-04-18T08:49:19.515Z,17.93
2019-04-18T08:50:29.658Z,17.9
2019-04-18T08:51:38.629Z,17.84
2019-04-18T08:52:50.230Z,17.89
2019-04-18T08:53:59.418Z,17.96
2019-04-18T08:55:08.571Z,17.96
2019-04-18T08:56:17.902Z,17.92
2019-04-18T08:57:29.654Z,17.95
2019-04-18T08:58:38.808Z,17.92
2019-04-18T08:59:51.517Z,17.96
2019-04-18T09:01:00.950Z,17.86
2019-04-18T09:02:10.690Z,18.05
2019-04-18T09:03:34.226Z,17.89
2019-04-18T09:04:54.273Z,18.03
2019-04-18T09:06:38.584Z,17.96
2019-04-18T09:07:54.702Z,18.02
2019-04-18T09:09:11.475Z,18.03
2019-04-18T09:10:26.940Z,18.07
2019-04-18T09:11:39.357Z,17.97
2019-04-18T09:12:51.274Z,17.93
2019-04-18T09:14:08.347Z,18
2019-04-18T09:15:27.728Z,18
2019-04-18T09:16:39.182Z,17.96
2019-04-18T09:17:54.503Z,17.95
2019-04-18T09:19:06.715Z,18.03
2019-04-18T09:20:33.530Z,17.95
2019-04-18T09:21:48.337Z,17.96
2019-04-18T09:23:10.010Z,18.07
2019-04-18T09:24:28.193Z,17.99
2019-04-18T09:25:39.865Z,18.03
2019-04-18T09:26:51.565Z,17.99
2019-04-18T09:28:06.700Z,18.1
2019-04-18T09:29:16.480Z,17.96
2019-04-18T09:30:29.487Z,18.08
2019-04-18T09:31:38.370Z,18.03
2019-04-18T09:32:51.542Z,18.1
2019-04-18T09:34:06.609Z,18.07
2019-04-18T09:35:19.927Z,17.93
2019-04-18T09:36:33.275Z,18.07
2019-04-18T09:37:42.421Z,17.96
2019-04-18T09:38:51.561Z,17.95
2019-04-18T09:40:00.715Z,17.99
2019-04-18T09:41:09.969Z,18.1
2019-04-18T09:42:19.124Z,18.02
2019-04-18T09:43:31.019Z,18.03
2019-04-18T09:44:45.069Z,18
2019-04-18T09:45:58.531Z,18
2019-04-18T09:47:12.287Z,17.96
2019-04-18T09:48:33.563Z,18.03
2019-04-18T09:49:43.614Z,18.05
2019-04-18T09:50:54.275Z,18.08
2019-04-18T09:52:04.278Z,18.03
2019-04-18T09:53:13.536Z,18.05
2019-04-18T09:54:23.414Z,18.07
2019-04-18T09:55:32.937Z,18.07
2019-04-18T09:56:41.825Z,18.02
2019-04-18T09:57:51.030Z,18.1
2019-04-18T09:59:00.449Z,18.08
2019-04-18T10:00:18.633Z,18.05
2019-04-18T10:01:33.567Z,18.03
2019-04-18T10:02:42.713Z,18.08
2019-04-18T10:03:52.135Z,18.02
2019-04-18T10:05:01.016Z,17.99
2019-04-18T10:06:25.865Z,18.03
2019-04-18T10:07:34.738Z,18.07
2019-04-18T10:08:43.740Z,18.1
2019-04-18T10:09:52.879Z,18.05
2019-04-18T10:11:04.596Z,18.03
2019-04-18T10:12:31.590Z,18.07
2019-04-18T10:13:40.656Z,18.14
2019-04-18T10:14:49.527Z,18.03
2019-04-18T10:16:08.340Z,18.05
2019-04-18T10:17:21.357Z,18.02
2019-04-18T10:18:35.521Z,18.05
2019-04-18T10:19:45.578Z,18.1
2019-04-18T10:20:54.840Z,18.12
2019-04-18T10:22:07.723Z,18.07
2019-04-18T10:23:17.220Z,18.1
2019-04-18T10:24:31.653Z,18.08
2019-04-18T10:25:41.493Z,18.11
2019-04-18T10:26:55.255Z,18.08
2019-04-18T10:28:04.151Z,18.12
2019-04-18T10:29:13.030Z,18.05
2019-04-18T10:30:34.602Z,18.05
2019-04-18T10:31:43.478Z,18.07
2019-04-18T10:32:52.894Z,18.1
2019-04-18T10:34:02.308Z,18.08
2019-04-18T10:35:19.697Z,18.1
2019-04-18T10:36:32.414Z,18.03
2019-04-18T10:37:41.589Z,18.07
2019-04-18T10:38:54.025Z,18.07
2019-04-18T10:40:02.905Z,18.1
2019-04-18T10:41:12.637Z,18.08
2019-04-18T10:42:21.536Z,18.17
2019-04-18T10:43:30.693Z,18.1
2019-04-18T10:44:39.573Z,18.07
2019-04-18T10:45:48.721Z,18.1
2019-04-18T10:46:58.455Z,18.11
2019-04-18T10:48:08.436Z,18.11
2019-04-18T10:49:17.431Z,18.17
2019-04-18T10:50:26.582Z,18.14
2019-04-18T10:51:36.540Z,18.17
2019-04-18T10:52:45.476Z,18.14
2019-04-18T10:53:54.364Z,18.11
2019-04-18T10:55:03.252Z,18.17
2019-04-18T10:56:12.403Z,18.14
2019-04-18T10:57:22.047Z,18.12
2019-04-18T10:58:30.971Z,18.17
2019-04-18T10:59:39.879Z,18.14
2019-04-18T11:00:49.587Z,18.12
2019-04-18T11:01:58.739Z,18.2
2019-04-18T11:03:10.040Z,18.12
2019-04-18T11:04:25.020Z,18.18
2019-04-18T11:05:36.432Z,18.17
2019-04-18T11:06:45.594Z,18.21
2019-04-18T11:07:54.755Z,18.18
2019-04-18T11:09:03.630Z,18.18
2019-04-18T11:10:13.984Z,18.18
2019-04-18T11:11:23.654Z,18.2
2019-04-18T11:12:32.807Z,18.2
2019-04-18T11:13:41.685Z,18.25
2019-04-18T11:14:50.693Z,18.17
2019-04-18T11:15:59.949Z,18.2
2019-04-18T11:17:09.106Z,18.23
2019-04-18T11:18:18.272Z,18.21
2019-04-18T11:19:27.337Z,18.14
2019-04-18T11:20:36.217Z,18.2
2019-04-18T11:21:45.364Z,18.21
2019-04-18T11:22:54.523Z,18.17
2019-04-18T11:24:04.498Z,18.18
2019-04-18T11:25:14.180Z,18.2
2019-04-18T11:26:23.153Z,18.26
2019-04-18T11:27:38.024Z,18.18
2019-04-18T11:28:46.906Z,18.21
2019-04-18T11:29:55.823Z,18.23
2019-04-18T11:31:05.303Z,18.27
2019-04-18T11:32:15.177Z,18.23
2019-04-18T11:33:27.566Z,18.2
2019-04-18T11:34:39.093Z,18.18
2019-04-18T11:35:48.730Z,18.25
2019-04-18T11:36:57.603Z,18.23
2019-04-18T11:38:08.069Z,18.23
2019-04-18T11:39:25.119Z,18.23
2019-04-18T11:40:35.071Z,18.23
2019-04-18T11:41:46.532Z,18.23
2019-04-18T11:42:55.425Z,18.2
2019-04-18T11:44:04.844Z,18.18
2019-04-18T11:45:14.587Z,18.25
2019-04-18T11:46:23.518Z,18.23
2019-04-18T11:47:32.660Z,18.2
2019-04-18T11:48:41.547Z,18.23
2019-04-18T11:49:50.966Z,18.29
2019-04-18T11:50:59.898Z,18.2
2019-04-18T11:52:08.930Z,18.2
2019-04-18T11:53:18.646Z,18.29
2019-04-18T11:54:28.061Z,18.23
2019-04-18T11:55:37.195Z,18.21
2019-04-18T11:56:46.120Z,18.26
2019-04-18T11:57:55.024Z,18.39
2019-04-18T11:59:04.717Z,18.3
2019-04-18T12:00:17.162Z,18.35
2019-04-18T12:01:35.305Z,18.35
2019-04-18T12:02:44.503Z,18.3
2019-04-18T12:03:54.239Z,18.35
2019-04-18T12:05:03.113Z,18.32
2019-04-18T12:06:12.408Z,18.3
2019-04-18T12:07:21.827Z,18.35
2019-04-18T12:08:30.806Z,18.3
2019-04-18T12:09:39.963Z,18.33
2019-04-18T12:10:49.114Z,18.36
2019-04-18T12:11:57.990Z,18.32
2019-04-18T12:13:08.283Z,18.36
2019-04-18T12:14:17.271Z,18.39
2019-04-18T12:15:26.419Z,18.37
2019-04-18T12:16:39.267Z,18.32
2019-04-18T12:17:49.269Z,18.39
2019-04-18T12:18:58.693Z,18.33
2019-04-18T12:20:09.255Z,18.33
2019-04-18T12:21:19.250Z,18.36
2019-04-18T12:22:37.328Z,18.36
2019-04-18T12:23:46.491Z,18.35
2019-04-18T12:24:55.635Z,18.32
2019-04-18T12:26:06.094Z,18.32
2019-04-18T12:27:14.971Z,18.41
2019-04-18T12:28:24.168Z,18.36
2019-04-18T12:29:37.172Z,18.33
2019-04-18T12:30:46.323Z,18.41
2019-04-18T12:31:55.627Z,18.37
2019-04-18T12:33:06.047Z,18.36
2019-04-18T12:34:24.912Z,18.41
2019-04-18T12:35:34.060Z,18.39
2019-04-18T12:36:43.209Z,18.41
2019-04-18T12:37:52.456Z,18.41
2019-04-18T12:39:01.459Z,18.36
2019-04-18T12:40:10.614Z,18.44
2019-04-18T12:41:19.519Z,18.42
2019-04-18T12:42:30.961Z,18.37
2019-04-18T12:43:39.845Z,18.41
2019-04-18T12:44:49.546Z,18.37
2019-04-18T12:45:58.966Z,18.41
2019-04-18T12:47:09.305Z,18.48
2019-04-18T12:48:18.178Z,18.37
2019-04-18T12:49:31.780Z,18.44
2019-04-18T12:50:40.937Z,18.47
2019-04-18T12:51:49.868Z,18.51
2019-04-18T12:53:20.760Z,18.48
2019-04-18T12:54:29.654Z,18.47
2019-04-18T12:55:38.535Z,18.41
2019-04-18T12:56:47.715Z,18.5
2019-04-18T12:57:56.596Z,18.48
2019-04-18T12:59:06.666Z,18.44
2019-04-18T13:00:15.655Z,18.47
2019-04-18T13:01:25.081Z,18.5
2019-04-18T13:02:34.728Z,18.48
2019-04-18T13:03:46.864Z,18.47
2019-04-18T13:04:55.750Z,18.48
2019-04-18T13:06:06.494Z,18.52
2019-04-18T13:07:16.341Z,18.52
2019-04-18T13:08:28.352Z,18.48
2019-04-18T13:09:37.769Z,18.48
2019-04-18T13:10:47.461Z,18.5
2019-04-18T13:11:56.924Z,18.42
2019-04-18T13:13:06.408Z,18.47
2019-04-18T13:14:19.821Z,18.5
2019-04-18T13:15:29.241Z,18.48
2019-04-18T13:16:38.382Z,18.44
2019-04-18T13:17:47.628Z,18.47
2019-04-18T13:18:57.551Z,18.47
2019-04-18T13:20:11.007Z,18.5
2019-04-18T13:21:20.260Z,18.47
2019-04-18T13:22:29.433Z,18.48
2019-04-18T13:23:38.316Z,18.47
2019-04-18T13:24:47.182Z,18.44
2019-04-18T13:25:56.345Z,18.48
2019-04-18T13:27:06.471Z,18.52
2019-04-18T13:28:15.615Z,18.44
2019-04-18T13:29:24.758Z,18.51
2019-04-18T13:30:33.915Z,18.5
2019-04-18T13:31:42.786Z,18.54
2019-04-18T13:33:07.515Z,18.5
2019-04-18T13:34:20.826Z,18.47
2019-04-18T13:35:30.168Z,18.45
2019-04-18T13:36:39.580Z,18.57
2019-04-18T13:37:48.987Z,18.45
2019-04-18T13:38:58.130Z,18.51
2019-04-18T13:40:12.140Z,18.45
2019-04-18T13:41:21.915Z,18.5
2019-04-18T13:42:30.782Z,18.51
2019-04-18T13:43:39.665Z,18.52
2019-04-18T13:44:49.086Z,18.51
2019-04-18T13:45:58.479Z,18.52
2019-04-18T13:47:14.611Z,18.55
2019-04-18T13:48:23.494Z,18.5
2019-04-18T13:49:32.640Z,18.48
2019-04-18T13:50:41.511Z,18.57
2019-04-18T13:51:50.926Z,18.52
2019-04-18T13:53:01.461Z,18.51
2019-04-18T13:54:14.004Z,18.55
2019-04-18T13:55:22.870Z,18.48
2019-04-18T13:56:32.016Z,18.55
2019-04-18T13:57:41.804Z,18.5
2019-04-18T13:58:50.856Z,18.52
2019-04-18T14:00:01.531Z,18.54
2019-04-18T14:01:10.693Z,18.47
2019-04-18T14:02:24.988Z,18.48
2019-04-18T14:03:34.452Z,18.55
2019-04-18T14:04:46.532Z,18.55
2019-04-18T14:05:56.457Z,18.48
2019-04-18T14:07:06.221Z,18.5
2019-04-18T14:08:15.360Z,18.55
2019-04-18T14:09:24.242Z,18.54
2019-04-18T14:10:33.386Z,18.47
2019-04-18T14:11:42.599Z,18.58
2019-04-18T14:12:52.014Z,18.51
2019-04-18T14:14:03.136Z,18.58
2019-04-18T14:15:12.083Z,18.48
2019-04-18T14:16:22.212Z,18.5
2019-04-18T14:17:31.355Z,18.5
2019-04-18T14:18:41.226Z,18.52
2019-04-18T14:19:50.909Z,18.58
2019-04-18T14:21:00.890Z,18.52
2019-04-18T14:22:09.808Z,18.57
2019-04-18T14:23:18.962Z,18.62
2019-04-18T14:24:28.380Z,18.62
2019-04-18T14:25:37.593Z,18.55
2019-04-18T14:26:49.563Z,18.58
2019-04-18T14:28:00.425Z,18.57
2019-04-18T14:29:10.282Z,18.65
2019-04-18T14:30:20.303Z,18.63
2019-04-18T14:31:29.471Z,18.54
2019-04-18T14:32:39.108Z,18.52
2019-04-18T14:33:48.264Z,18.52
2019-04-18T14:34:57.408Z,18.6
2019-04-18T14:36:06.829Z,18.63
2019-04-18T14:37:15.722Z,18.57
2019-04-18T14:38:25.591Z,18.57
2019-04-18T14:39:34.743Z,18.52
2019-04-18T14:40:43.629Z,18.54
2019-04-18T14:41:52.504Z,18.62
2019-04-18T14:43:07.700Z,18.63
2019-04-18T14:44:24.040Z,18.55
2019-04-18T14:45:33.263Z,18.52
2019-04-18T14:46:42.398Z,18.57
2019-04-18T14:48:18.711Z,18.58
2019-04-18T14:49:27.887Z,18.62
2019-04-18T14:50:37.294Z,18.66
2019-04-18T14:51:46.454Z,18.62
2019-04-18T14:52:55.620Z,18.58
2019-04-18T14:54:04.551Z,18.63
2019-04-18T14:55:14.218Z,18.63
2019-04-18T14:56:24.248Z,18.66
2019-04-18T14:57:33.388Z,18.58
2019-04-18T14:58:42.262Z,18.6
2019-04-18T14:59:51.419Z,18.65
2019-04-18T15:01:00.897Z,18.66
2019-04-18T15:02:10.665Z,18.57
2019-04-18T15:03:20.095Z,18.66
2019-04-18T15:04:33.461Z,18.67
2019-04-18T15:05:42.336Z,18.65
2019-04-18T15:06:51.487Z,18.6
2019-04-18T15:08:01.399Z,18.62
2019-04-18T15:09:11.068Z,18.65
2019-04-18T15:10:20.558Z,18.7
2019-04-18T15:11:29.710Z,18.65
2019-04-18T15:12:38.597Z,18.66
2019-04-18T15:13:47.739Z,18.67
2019-04-18T15:14:56.628Z,18.65
2019-04-18T15:16:09.767Z,18.63